sensor_id;sensor_type;location;lat;lon;timestamp;temperature;humidity
12166;DHT22;6146;48.128;11.476;2023-02-26T00:02:12;0.10;99.90
12166;DHT22;6146;48.128;11.476;2023-02-26T00:04:37;0.10;99.90
12166;DHT22;6146;48.128;11.476;2023-02-26T00:07:04;0.20;99.90
12166;DHT22;6146;48.128;11.476;2023-02-26T00:09:30;0.10;99.90
12166;DHT22;6146;48.128;11.476;2023-02-26T00:11:57;0.10;99.90
12166;DHT22;6146;48.128;11.476;2023-02-26T00:14:23;0.10;99.90
12166;DHT22;6146;48.128;11.476;2023-02-26T00:17:13;0.10;99.90
12166;DHT22;6146;48.128;11.476;2023-02-26T00:19:43;0.20;99.90
12166;DHT22;6146;48.128;11.476;2023-02-26T00:22:09;0.20;99.90
12166;DHT22;6146;48.128;11.476;2023-02-26T00:24:34;0.30;99.90
12166;DHT22;6146;48.128;11.476;2023-02-26T00:27:00;0.20;99.90
12166;DHT22;6146;48.128;11.476;2023-02-26T00:29:26;0.30;99.90
12166;DHT22;6146;48.128;11.476;2023-02-26T00:31:51;0.30;99.90
12166;DHT22;6146;48.128;11.476;2023-02-26T00:34:17;0.20;99.90
12166;DHT22;6146;48.128;11.476;2023-02-26T00:37:16;0.10;99.90
12166;DHT22;6146;48.128;11.476;2023-02-26T00:42:11;0.20;99.90
12166;DHT22;6146;48.128;11.476;2023-02-26T00:44:38;0.20;99.90
12166;DHT22;6146;48.128;11.476;2023-02-26T00:50:15;0.20;99.90
12166;DHT22;6146;48.128;11.476;2023-02-26T00:55:21;0.10;99.90
12166;DHT22;6146;48.128;11.476;2023-02-26T00:57:47;0.10;99.90
12166;DHT22;6146;48.128;11.476;2023-02-26T01:00:13;0.10;99.90
12166;DHT22;6146;48.128;11.476;2023-02-26T01:02:40;0.10;99.90
12166;DHT22;6146;48.128;11.476;2023-02-26T01:05:07;0.10;99.90
12166;DHT22;6146;48.128;11.476;2023-02-26T01:07:53;0.10;99.90
12166;DHT22;6146;48.128;11.476;2023-02-26T01:10:23;0.00;99.90
12166;DHT22;6146;48.128;11.476;2023-02-26T01:12:49;-0.10;99.90
12166;DHT22;6146;48.128;11.476;2023-02-26T01:15:15;-0.10;99.90
12166;DHT22;6146;48.128;11.476;2023-02-26T01:17:53;-0.20;99.90
12166;DHT22;6146;48.128;11.476;2023-02-26T01:20:25;-0.20;99.90
12166;DHT22;6146;48.128;11.476;2023-02-26T01:23:02;-0.20;99.90
12166;DHT22;6146;48.128;11.476;2023-02-26T01:25:42;-0.30;99.90
12166;DHT22;6146;48.128;11.476;2023-02-26T01:28:08;-0.30;99.90
12166;DHT22;6146;48.128;11.476;2023-02-26T01:30:35;-0.30;99.90
12166;DHT22;6146;48.128;11.476;2023-02-26T01:33:12;-0.30;99.90
12166;DHT22;6146;48.128;11.476;2023-02-26T01:38:43;-0.40;99.90
12166;DHT22;6146;48.128;11.476;2023-02-26T01:41:35;-0.30;99.90
12166;DHT22;6146;48.128;11.476;2023-02-26T01:49:19;-0.20;99.90
12166;DHT22;6146;48.128;11.476;2023-02-26T01:54:16;-0.20;99.90
12166;DHT22;6146;48.128;11.476;2023-02-26T01:56:43;-0.20;99.90
12166;DHT22;6146;48.128;11.476;2023-02-26T01:59:14;-0.20;99.90
12166;DHT22;6146;48.128;11.476;2023-02-26T02:01:39;-0.20;99.90
12166;DHT22;6146;48.128;11.476;2023-02-26T02:04:09;-0.30;99.90
12166;DHT22;6146;48.128;11.476;2023-02-26T02:06:35;-0.30;99.90
12166;DHT22;6146;48.128;11.476;2023-02-26T02:09:05;-0.30;99.90
12166;DHT22;6146;48.128;11.476;2023-02-26T02:11:31;-0.30;99.90
12166;DHT22;6146;48.128;11.476;2023-02-26T02:19:29;-0.30;99.90
12166;DHT22;6146;48.128;11.476;2023-02-26T02:22:23;-0.30;99.90
12166;DHT22;6146;48.128;11.476;2023-02-26T02:30:34;-0.40;99.90
12166;DHT22;6146;48.128;11.476;2023-02-26T02:33:06;-0.30;99.90
12166;DHT22;6146;48.128;11.476;2023-02-26T02:35:53;-0.40;99.90
12166;DHT22;6146;48.128;11.476;2023-02-26T02:38:36;-0.40;99.90
12166;DHT22;6146;48.128;11.476;2023-02-26T02:41:08;-0.40;99.90
12166;DHT22;6146;48.128;11.476;2023-02-26T02:43:36;-0.30;99.90
12166;DHT22;6146;48.128;11.476;2023-02-26T02:46:06;-0.30;99.90
12166;DHT22;6146;48.128;11.476;2023-02-26T02:48:43;-0.30;99.90
12166;DHT22;6146;48.128;11.476;2023-02-26T02:51:13;-0.40;99.90
12166;DHT22;6146;48.128;11.476;2023-02-26T02:54:02;-0.30;99.90
12166;DHT22;6146;48.128;11.476;2023-02-26T02:56:53;-0.40;99.90
12166;DHT22;6146;48.128;11.476;2023-02-26T02:59:26;-0.40;99.90
12166;DHT22;6146;48.128;11.476;2023-02-26T03:04:33;-0.50;99.90
12166;DHT22;6146;48.128;11.476;2023-02-26T03:06:58;-0.50;99.90
12166;DHT22;6146;48.128;11.476;2023-02-26T03:09:24;-0.50;99.90
12166;DHT22;6146;48.128;11.476;2023-02-26T03:11:50;-0.60;99.90
12166;DHT22;6146;48.128;11.476;2023-02-26T03:14:15;-0.60;99.90
12166;DHT22;6146;48.128;11.476;2023-02-26T03:16:51;-0.60;99.90
12166;DHT22;6146;48.128;11.476;2023-02-26T03:27:31;-0.80;99.90
12166;DHT22;6146;48.128;11.476;2023-02-26T03:30:13;-0.80;99.90
12166;DHT22;6146;48.128;11.476;2023-02-26T03:38:09;-0.80;99.90
12166;DHT22;6146;48.128;11.476;2023-02-26T03:40:42;-0.90;99.90
12166;DHT22;6146;48.128;11.476;2023-02-26T03:43:20;-0.90;99.90
12166;DHT22;6146;48.128;11.476;2023-02-26T03:45:50;-0.90;99.90
12166;DHT22;6146;48.128;11.476;2023-02-26T03:48:20;-0.90;99.90
12166;DHT22;6146;48.128;11.476;2023-02-26T03:50:50;-0.90;99.90
12166;DHT22;6146;48.128;11.476;2023-02-26T03:53:21;-1.00;99.90
12166;DHT22;6146;48.128;11.476;2023-02-26T03:56:00;-0.90;99.90
12166;DHT22;6146;48.128;11.476;2023-02-26T03:58:27;-1.00;99.90
12166;DHT22;6146;48.128;11.476;2023-02-26T04:00:59;-1.00;99.90
12166;DHT22;6146;48.128;11.476;2023-02-26T04:03:35;-1.00;99.90
12166;DHT22;6146;48.128;11.476;2023-02-26T04:06:03;-1.00;99.90
12166;DHT22;6146;48.128;11.476;2023-02-26T04:08:30;-1.00;99.90
12166;DHT22;6146;48.128;11.476;2023-02-26T04:10:58;-1.00;99.90
12166;DHT22;6146;48.128;11.476;2023-02-26T04:13:24;-1.00;99.90
12166;DHT22;6146;48.128;11.476;2023-02-26T04:15:50;-1.00;99.90
12166;DHT22;6146;48.128;11.476;2023-02-26T04:18:16;-1.10;99.90
12166;DHT22;6146;48.128;11.476;2023-02-26T04:20:41;-1.20;99.90
12166;DHT22;6146;48.128;11.476;2023-02-26T04:23:07;-1.20;99.90
12166;DHT22;6146;48.128;11.476;2023-02-26T04:25:33;-1.20;99.90
12166;DHT22;6146;48.128;11.476;2023-02-26T04:27:58;-1.20;99.90
12166;DHT22;6146;48.128;11.476;2023-02-26T04:30:24;-1.30;99.90
12166;DHT22;6146;48.128;11.476;2023-02-26T04:32:49;-1.40;99.90
12166;DHT22;6146;48.128;11.476;2023-02-26T04:35:15;-1.40;99.90
12166;DHT22;6146;48.128;11.476;2023-02-26T04:37:40;-1.40;99.90
12166;DHT22;6146;48.128;11.476;2023-02-26T04:40:06;-1.50;99.90
12166;DHT22;6146;48.128;11.476;2023-02-26T04:42:32;-1.50;99.90
12166;DHT22;6146;48.128;11.476;2023-02-26T04:44:57;-1.50;99.90
12166;DHT22;6146;48.128;11.476;2023-02-26T04:47:23;-1.50;99.90
12166;DHT22;6146;48.128;11.476;2023-02-26T04:49:48;-1.50;99.90
12166;DHT22;6146;48.128;11.476;2023-02-26T04:52:14;-1.40;99.90
12166;DHT22;6146;48.128;11.476;2023-02-26T04:54:40;-1.50;99.90
12166;DHT22;6146;48.128;11.476;2023-02-26T04:57:05;-1.50;99.90
12166;DHT22;6146;48.128;11.476;2023-02-26T04:59:31;-1.60;99.90
12166;DHT22;6146;48.128;11.476;2023-02-26T05:01:57;-1.60;99.90
12166;DHT22;6146;48.128;11.476;2023-02-26T05:04:23;-1.60;99.90
12166;DHT22;6146;48.128;11.476;2023-02-26T05:06:48;-1.70;99.90
12166;DHT22;6146;48.128;11.476;2023-02-26T05:09:14;-1.70;99.90
12166;DHT22;6146;48.128;11.476;2023-02-26T05:11:39;-1.80;99.90
12166;DHT22;6146;48.128;11.476;2023-02-26T05:14:05;-1.90;99.90
12166;DHT22;6146;48.128;11.476;2023-02-26T05:16:30;-1.90;99.90
12166;DHT22;6146;48.128;11.476;2023-02-26T05:18:56;-2.00;99.90
12166;DHT22;6146;48.128;11.476;2023-02-26T05:21:21;-2.10;99.90
12166;DHT22;6146;48.128;11.476;2023-02-26T05:23:47;-2.20;99.90
12166;DHT22;6146;48.128;11.476;2023-02-26T05:26:13;-2.30;99.90
12166;DHT22;6146;48.128;11.476;2023-02-26T05:28:38;-2.30;99.90
12166;DHT22;6146;48.128;11.476;2023-02-26T05:31:04;-2.40;99.90
12166;DHT22;6146;48.128;11.476;2023-02-26T05:33:30;-2.40;99.90
12166;DHT22;6146;48.128;11.476;2023-02-26T05:35:56;-2.50;99.90
12166;DHT22;6146;48.128;11.476;2023-02-26T05:38:22;-2.50;99.90
12166;DHT22;6146;48.128;11.476;2023-02-26T05:40:48;-2.60;99.90
12166;DHT22;6146;48.128;11.476;2023-02-26T05:43:13;-2.70;99.90
12166;DHT22;6146;48.128;11.476;2023-02-26T05:45:39;-2.80;99.90
12166;DHT22;6146;48.128;11.476;2023-02-26T05:48:04;-2.80;99.90
12166;DHT22;6146;48.128;11.476;2023-02-26T05:50:30;-2.80;99.90
12166;DHT22;6146;48.128;11.476;2023-02-26T05:52:56;-2.90;99.90
12166;DHT22;6146;48.128;11.476;2023-02-26T05:55:22;-2.90;99.90
12166;DHT22;6146;48.128;11.476;2023-02-26T05:57:47;-2.90;99.90
12166;DHT22;6146;48.128;11.476;2023-02-26T06:00:13;-3.00;99.90
12166;DHT22;6146;48.128;11.476;2023-02-26T06:02:39;-3.00;99.90
12166;DHT22;6146;48.128;11.476;2023-02-26T06:05:06;-3.00;99.90
12166;DHT22;6146;48.128;11.476;2023-02-26T06:07:32;-3.00;99.90
12166;DHT22;6146;48.128;11.476;2023-02-26T06:09:58;-3.10;99.90
12166;DHT22;6146;48.128;11.476;2023-02-26T06:12:23;-3.10;99.90
12166;DHT22;6146;48.128;11.476;2023-02-26T06:14:49;-3.10;99.90
12166;DHT22;6146;48.128;11.476;2023-02-26T06:17:15;-3.10;99.90
12166;DHT22;6146;48.128;11.476;2023-02-26T06:19:41;-3.10;99.90
12166;DHT22;6146;48.128;11.476;2023-02-26T06:22:07;-3.10;99.90
12166;DHT22;6146;48.128;11.476;2023-02-26T06:24:33;-3.10;99.90
12166;DHT22;6146;48.128;11.476;2023-02-26T06:26:59;-3.10;99.90
12166;DHT22;6146;48.128;11.476;2023-02-26T06:29:24;-3.10;99.90
12166;DHT22;6146;48.128;11.476;2023-02-26T06:31:50;-3.10;99.90
12166;DHT22;6146;48.128;11.476;2023-02-26T06:34:16;-3.00;99.90
12166;DHT22;6146;48.128;11.476;2023-02-26T06:36:42;-3.00;99.90
12166;DHT22;6146;48.128;11.476;2023-02-26T06:39:07;-2.80;99.90
12166;DHT22;6146;48.128;11.476;2023-02-26T06:41:33;-2.70;99.90
12166;DHT22;6146;48.128;11.476;2023-02-26T06:43:59;-2.60;99.90
12166;DHT22;6146;48.128;11.476;2023-02-26T06:46:25;-2.50;99.90
12166;DHT22;6146;48.128;11.476;2023-02-26T06:48:51;-2.30;99.90
12166;DHT22;6146;48.128;11.476;2023-02-26T06:51:17;-2.10;99.90
12166;DHT22;6146;48.128;11.476;2023-02-26T06:53:42;-1.90;99.90
12166;DHT22;6146;48.128;11.476;2023-02-26T06:56:08;-1.70;99.90
12166;DHT22;6146;48.128;11.476;2023-02-26T06:58:33;-1.60;99.90
12166;DHT22;6146;48.128;11.476;2023-02-26T07:00:59;-1.40;99.90
12166;DHT22;6146;48.128;11.476;2023-02-26T07:03:24;-1.20;99.90
12166;DHT22;6146;48.128;11.476;2023-02-26T07:05:50;-1.00;99.90
12166;DHT22;6146;48.128;11.476;2023-02-26T07:08:16;1.30;99.90
12166;DHT22;6146;48.128;11.476;2023-02-26T07:10:42;-0.50;99.90
12166;DHT22;6146;48.128;11.476;2023-02-26T07:13:08;-0.40;99.90
12166;DHT22;6146;48.128;11.476;2023-02-26T07:15:33;-0.30;99.90
12166;DHT22;6146;48.128;11.476;2023-02-26T07:17:59;-0.20;99.90
12166;DHT22;6146;48.128;11.476;2023-02-26T07:20:26;-0.20;99.90
12166;DHT22;6146;48.128;11.476;2023-02-26T07:22:51;-0.10;99.90
12166;DHT22;6146;48.128;11.476;2023-02-26T07:25:17;0.00;99.90
12166;DHT22;6146;48.128;11.476;2023-02-26T07:27:43;0.00;99.90
12166;DHT22;6146;48.128;11.476;2023-02-26T07:30:09;-0.10;99.90
12166;DHT22;6146;48.128;11.476;2023-02-26T07:32:35;-0.60;99.90
12166;DHT22;6146;48.128;11.476;2023-02-26T07:35:01;-0.50;99.90
12166;DHT22;6146;48.128;11.476;2023-02-26T07:37:26;-0.30;99.90
12166;DHT22;6146;48.128;11.476;2023-02-26T07:39:53;-0.10;99.90
12166;DHT22;6146;48.128;11.476;2023-02-26T07:42:19;0.00;99.90
12166;DHT22;6146;48.128;11.476;2023-02-26T07:44:44;0.00;99.90
12166;DHT22;6146;48.128;11.476;2023-02-26T07:47:10;0.00;99.90
12166;DHT22;6146;48.128;11.476;2023-02-26T07:49:36;0.20;99.90
12166;DHT22;6146;48.128;11.476;2023-02-26T07:52:02;0.10;99.90
12166;DHT22;6146;48.128;11.476;2023-02-26T07:54:28;0.00;99.90
12166;DHT22;6146;48.128;11.476;2023-02-26T07:56:54;1.70;99.90
12166;DHT22;6146;48.128;11.476;2023-02-26T07:59:19;-0.30;99.90
12166;DHT22;6146;48.128;11.476;2023-02-26T08:01:45;-0.10;99.90
12166;DHT22;6146;48.128;11.476;2023-02-26T08:04:11;0.10;99.90
12166;DHT22;6146;48.128;11.476;2023-02-26T08:06:36;0.20;99.90
12166;DHT22;6146;48.128;11.476;2023-02-26T08:09:03;0.20;99.90
12166;DHT22;6146;48.128;11.476;2023-02-26T08:11:29;0.20;99.90
12166;DHT22;6146;48.128;11.476;2023-02-26T08:13:57;0.00;99.90
12166;DHT22;6146;48.128;11.476;2023-02-26T08:16:23;-0.10;99.90
12166;DHT22;6146;48.128;11.476;2023-02-26T08:18:49;-0.60;99.90
12166;DHT22;6146;48.128;11.476;2023-02-26T08:21:15;-0.70;99.90
12166;DHT22;6146;48.128;11.476;2023-02-26T08:23:40;-0.70;99.90
12166;DHT22;6146;48.128;11.476;2023-02-26T08:26:08;-0.60;99.90
12166;DHT22;6146;48.128;11.476;2023-02-26T08:28:35;-0.80;99.90
12166;DHT22;6146;48.128;11.476;2023-02-26T08:31:01;-0.80;99.90
12166;DHT22;6146;48.128;11.476;2023-02-26T08:33:28;-0.80;99.90
12166;DHT22;6146;48.128;11.476;2023-02-26T08:35:53;-1.00;99.90
12166;DHT22;6146;48.128;11.476;2023-02-26T08:38:21;-1.00;99.90
12166;DHT22;6146;48.128;11.476;2023-02-26T08:40:49;-1.00;99.90
12166;DHT22;6146;48.128;11.476;2023-02-26T08:43:17;-0.90;99.90
12166;DHT22;6146;48.128;11.476;2023-02-26T08:45:43;-0.90;99.90
12166;DHT22;6146;48.128;11.476;2023-02-26T08:48:09;-0.80;99.90
12166;DHT22;6146;48.128;11.476;2023-02-26T08:50:34;-0.70;99.90
12166;DHT22;6146;48.128;11.476;2023-02-26T08:53:00;-0.40;99.90
12166;DHT22;6146;48.128;11.476;2023-02-26T08:55:26;-0.20;99.90
12166;DHT22;6146;48.128;11.476;2023-02-26T08:57:51;0.00;99.90
12166;DHT22;6146;48.128;11.476;2023-02-26T09:00:17;-0.20;99.90
12166;DHT22;6146;48.128;11.476;2023-02-26T09:02:44;-0.30;99.90
12166;DHT22;6146;48.128;11.476;2023-02-26T09:05:10;-0.60;99.90
12166;DHT22;6146;48.128;11.476;2023-02-26T09:07:36;-0.50;99.90
12166;DHT22;6146;48.128;11.476;2023-02-26T09:10:03;-0.80;99.90
12166;DHT22;6146;48.128;11.476;2023-02-26T09:12:29;-1.00;99.90
12166;DHT22;6146;48.128;11.476;2023-02-26T09:14:54;-1.00;99.90
12166;DHT22;6146;48.128;11.476;2023-02-26T09:17:23;-0.80;99.90
12166;DHT22;6146;48.128;11.476;2023-02-26T09:19:49;-0.60;99.90
12166;DHT22;6146;48.128;11.476;2023-02-26T09:22:14;-0.70;99.90
12166;DHT22;6146;48.128;11.476;2023-02-26T09:24:40;-0.60;99.90
12166;DHT22;6146;48.128;11.476;2023-02-26T09:27:05;-0.60;99.90
12166;DHT22;6146;48.128;11.476;2023-02-26T09:29:31;-0.60;99.90
12166;DHT22;6146;48.128;11.476;2023-02-26T09:31:57;-1.00;99.90
12166;DHT22;6146;48.128;11.476;2023-02-26T09:34:22;-1.00;99.90
12166;DHT22;6146;48.128;11.476;2023-02-26T09:36:48;-1.10;99.90
12166;DHT22;6146;48.128;11.476;2023-02-26T09:39:13;-0.90;99.90
12166;DHT22;6146;48.128;11.476;2023-02-26T09:41:51;-0.80;99.90
12166;DHT22;6146;48.128;11.476;2023-02-26T09:44:22;-0.80;99.90
12166;DHT22;6146;48.128;11.476;2023-02-26T09:49:58;-0.50;99.90
12166;DHT22;6146;48.128;11.476;2023-02-26T09:52:51;-0.50;99.90
12166;DHT22;6146;48.128;11.476;2023-02-26T09:55:30;-0.80;99.90
12166;DHT22;6146;48.128;11.476;2023-02-26T09:58:00;-0.90;99.90
12166;DHT22;6146;48.128;11.476;2023-02-26T10:00:35;-0.80;99.90
12166;DHT22;6146;48.128;11.476;2023-02-26T10:03:26;-0.80;99.90
12166;DHT22;6146;48.128;11.476;2023-02-26T10:06:17;-0.80;99.90
12166;DHT22;6146;48.128;11.476;2023-02-26T10:08:50;-0.60;99.90
12166;DHT22;6146;48.128;11.476;2023-02-26T10:11:36;-0.80;99.90
12166;DHT22;6146;48.128;11.476;2023-02-26T10:17:02;-0.50;99.90
12166;DHT22;6146;48.128;11.476;2023-02-26T10:19:35;-0.40;99.90
12166;DHT22;6146;48.128;11.476;2023-02-26T10:22:25;-0.30;99.90
12166;DHT22;6146;48.128;11.476;2023-02-26T10:24:57;-0.10;99.90
12166;DHT22;6146;48.128;11.476;2023-02-26T10:27:41;0.20;99.90
12166;DHT22;6146;48.128;11.476;2023-02-26T10:30:25;0.50;99.90
12166;DHT22;6146;48.128;11.476;2023-02-26T10:32:59;0.60;99.90
12166;DHT22;6146;48.128;11.476;2023-02-26T10:35:31;0.30;99.90
12166;DHT22;6146;48.128;11.476;2023-02-26T10:38:07;0.20;99.90
12166;DHT22;6146;48.128;11.476;2023-02-26T10:41:00;0.20;99.90
12166;DHT22;6146;48.128;11.476;2023-02-26T10:43:42;0.00;99.90
12166;DHT22;6146;48.128;11.476;2023-02-26T10:51:44;-0.10;99.90
12166;DHT22;6146;48.128;11.476;2023-02-26T10:56:48;0.70;99.90
12166;DHT22;6146;48.128;11.476;2023-02-26T10:59:14;0.70;99.90
12166;DHT22;6146;48.128;11.476;2023-02-26T11:01:40;0.80;99.90
12166;DHT22;6146;48.128;11.476;2023-02-26T11:04:10;0.60;99.90
12166;DHT22;6146;48.128;11.476;2023-02-26T11:06:55;0.40;99.90
12166;DHT22;6146;48.128;11.476;2023-02-26T11:09:24;0.60;99.90
12166;DHT22;6146;48.128;11.476;2023-02-26T11:12:13;0.60;99.90
12166;DHT22;6146;48.128;11.476;2023-02-26T11:14:41;0.70;99.90
12166;DHT22;6146;48.128;11.476;2023-02-26T11:17:28;0.80;99.90
12166;DHT22;6146;48.128;11.476;2023-02-26T11:22:48;0.90;99.90
12166;DHT22;6146;48.128;11.476;2023-02-26T11:25:17;0.80;99.90
12166;DHT22;6146;48.128;11.476;2023-02-26T11:27:43;0.90;99.90
12166;DHT22;6146;48.128;11.476;2023-02-26T11:30:16;1.00;99.90
12166;DHT22;6146;48.128;11.476;2023-02-26T11:32:43;0.70;99.90
12166;DHT22;6146;48.128;11.476;2023-02-26T11:35:13;0.80;99.90
12166;DHT22;6146;48.128;11.476;2023-02-26T11:37:40;0.80;99.90
12166;DHT22;6146;48.128;11.476;2023-02-26T11:40:16;0.80;99.90
12166;DHT22;6146;48.128;11.476;2023-02-26T11:43:06;0.80;99.90
12166;DHT22;6146;48.128;11.476;2023-02-26T11:45:35;0.90;99.90
12166;DHT22;6146;48.128;11.476;2023-02-26T11:48:06;0.80;99.90
12166;DHT22;6146;48.128;11.476;2023-02-26T11:50:41;1.00;99.90
12166;DHT22;6146;48.128;11.476;2023-02-26T11:53:19;1.10;99.90
12166;DHT22;6146;48.128;11.476;2023-02-26T11:55:51;1.50;99.90
12166;DHT22;6146;48.128;11.476;2023-02-26T11:58:20;1.50;99.90
12166;DHT22;6146;48.128;11.476;2023-02-26T12:00:46;1.30;99.90
12166;DHT22;6146;48.128;11.476;2023-02-26T12:03:22;0.90;99.90
12166;DHT22;6146;48.128;11.476;2023-02-26T12:05:49;0.60;99.90
12166;DHT22;6146;48.128;11.476;2023-02-26T12:08:33;0.30;99.90
12166;DHT22;6146;48.128;11.476;2023-02-26T12:38:39;4.20;99.90
12166;DHT22;6146;48.128;11.476;2023-02-26T12:54:55;4.70;99.90
12166;DHT22;6146;48.128;11.476;2023-02-26T13:05:59;6.00;99.90
12166;DHT22;6146;48.128;11.476;2023-02-26T13:08:54;4.60;99.90
12166;DHT22;6146;48.128;11.476;2023-02-26T13:11:29;3.90;99.90
12166;DHT22;6146;48.128;11.476;2023-02-26T13:16:57;2.90;99.90
12166;DHT22;6146;48.128;11.476;2023-02-26T13:21:58;1.90;99.90
12166;DHT22;6146;48.128;11.476;2023-02-26T13:24:39;1.60;99.90
12166;DHT22;6146;48.128;11.476;2023-02-26T13:27:07;1.00;99.90
12166;DHT22;6146;48.128;11.476;2023-02-26T13:29:43;0.40;99.90
12166;DHT22;6146;48.128;11.476;2023-02-26T13:32:19;-0.10;99.90
12166;DHT22;6146;48.128;11.476;2023-02-26T13:37:56;-0.40;99.90
12166;DHT22;6146;48.128;11.476;2023-02-26T13:40:34;-0.40;99.90
12166;DHT22;6146;48.128;11.476;2023-02-26T13:43:22;-0.10;99.90
12166;DHT22;6146;48.128;11.476;2023-02-26T13:46:08;0.40;99.90
12166;DHT22;6146;48.128;11.476;2023-02-26T13:56:53;1.30;99.90
12166;DHT22;6146;48.128;11.476;2023-02-26T13:59:34;1.00;99.90
12166;DHT22;6146;48.128;11.476;2023-02-26T14:02:33;0.90;99.90
12166;DHT22;6146;48.128;11.476;2023-02-26T14:04:59;0.80;99.90
12166;DHT22;6146;48.128;11.476;2023-02-26T14:07:47;0.80;99.90
12166;DHT22;6146;48.128;11.476;2023-02-26T14:10:25;1.70;99.90
12166;DHT22;6146;48.128;11.476;2023-02-26T14:13:16;1.40;99.90
12166;DHT22;6146;48.128;11.476;2023-02-26T14:15:58;1.90;99.90
12166;DHT22;6146;48.128;11.476;2023-02-26T14:18:35;1.80;99.90
12166;DHT22;6146;48.128;11.476;2023-02-26T14:23:56;1.00;99.90
12166;DHT22;6146;48.128;11.476;2023-02-26T14:26:22;0.80;99.90
12166;DHT22;6146;48.128;11.476;2023-02-26T14:32:12;1.20;99.90
12166;DHT22;6146;48.128;11.476;2023-02-26T14:35:02;1.40;99.90
12166;DHT22;6146;48.128;11.476;2023-02-26T14:37:29;1.60;99.90
12166;DHT22;6146;48.128;11.476;2023-02-26T14:40:11;1.60;99.90
12166;DHT22;6146;48.128;11.476;2023-02-26T14:42:46;1.50;99.90
12166;DHT22;6146;48.128;11.476;2023-02-26T14:45:21;1.50;99.90
12166;DHT22;6146;48.128;11.476;2023-02-26T14:47:47;1.90;99.90
12166;DHT22;6146;48.128;11.476;2023-02-26T14:50:19;2.20;99.90
12166;DHT22;6146;48.128;11.476;2023-02-26T14:53:09;2.00;99.90
12166;DHT22;6146;48.128;11.476;2023-02-26T14:55:45;1.60;99.90
12166;DHT22;6146;48.128;11.476;2023-02-26T15:01:17;1.10;99.90
12166;DHT22;6146;48.128;11.476;2023-02-26T15:12:43;1.00;99.90
12166;DHT22;6146;48.128;11.476;2023-02-26T15:23:10;1.10;99.90
12166;DHT22;6146;48.128;11.476;2023-02-26T15:25:42;1.40;99.90
12166;DHT22;6146;48.128;11.476;2023-02-26T15:28:24;1.40;99.90
12166;DHT22;6146;48.128;11.476;2023-02-26T15:30:52;1.40;99.90
12166;DHT22;6146;48.128;11.476;2023-02-26T15:33:19;1.30;99.90
12166;DHT22;6146;48.128;11.476;2023-02-26T15:35:48;1.20;99.90
12166;DHT22;6146;48.128;11.476;2023-02-26T15:38:14;1.10;99.90
12166;DHT22;6146;48.128;11.476;2023-02-26T15:40:40;1.00;99.90
12166;DHT22;6146;48.128;11.476;2023-02-26T15:43:08;0.90;99.90
12166;DHT22;6146;48.128;11.476;2023-02-26T15:51:08;0.80;99.90
12166;DHT22;6146;48.128;11.476;2023-02-26T15:53:35;0.80;99.90
12166;DHT22;6146;48.128;11.476;2023-02-26T15:56:08;0.80;99.90
12166;DHT22;6146;48.128;11.476;2023-02-26T15:58:43;0.90;99.90
12166;DHT22;6146;48.128;11.476;2023-02-26T16:01:21;1.00;99.90
12166;DHT22;6146;48.128;11.476;2023-02-26T16:03:49;0.90;99.90
12166;DHT22;6146;48.128;11.476;2023-02-26T16:06:19;0.80;99.90
12166;DHT22;6146;48.128;11.476;2023-02-26T16:08:45;0.90;99.90
12166;DHT22;6146;48.128;11.476;2023-02-26T16:11:12;0.80;99.90
12166;DHT22;6146;48.128;11.476;2023-02-26T16:13:39;0.70;99.90
12166;DHT22;6146;48.128;11.476;2023-02-26T16:16:14;0.70;99.90
12166;DHT22;6146;48.128;11.476;2023-02-26T16:18:41;0.60;99.90
12166;DHT22;6146;48.128;11.476;2023-02-26T16:21:08;0.60;99.90
12166;DHT22;6146;48.128;11.476;2023-02-26T16:23:42;0.60;99.90
12166;DHT22;6146;48.128;11.476;2023-02-26T16:26:15;0.60;99.90
12166;DHT22;6146;48.128;11.476;2023-02-26T16:28:44;0.70;99.90
12166;DHT22;6146;48.128;11.476;2023-02-26T16:31:20;0.70;99.90
12166;DHT22;6146;48.128;11.476;2023-02-26T16:33:57;0.70;99.90
12166;DHT22;6146;48.128;11.476;2023-02-26T16:36:28;0.80;99.90
12166;DHT22;6146;48.128;11.476;2023-02-26T16:39:24;0.80;99.90
12166;DHT22;6146;48.128;11.476;2023-02-26T16:42:21;0.80;99.90
12166;DHT22;6146;48.128;11.476;2023-02-26T16:45:47;0.70;99.90
12166;DHT22;6146;48.128;11.476;2023-02-26T16:47:48;0.30;99.90
12166;DHT22;6146;48.128;11.476;2023-02-26T16:50:22;0.20;99.90
12166;DHT22;6146;48.128;11.476;2023-02-26T16:55:30;0.20;99.90
12166;DHT22;6146;48.128;11.476;2023-02-26T16:57:57;0.20;99.90
12166;DHT22;6146;48.128;11.476;2023-02-26T17:00:27;0.20;99.90
12166;DHT22;6146;48.128;11.476;2023-02-26T17:03:11;0.20;99.90
12166;DHT22;6146;48.128;11.476;2023-02-26T17:05:43;0.20;99.90
12166;DHT22;6146;48.128;11.476;2023-02-26T17:08:17;0.20;99.90
12166;DHT22;6146;48.128;11.476;2023-02-26T17:13:16;0.20;99.90
12166;DHT22;6146;48.128;11.476;2023-02-26T17:15:44;0.10;99.90
12166;DHT22;6146;48.128;11.476;2023-02-26T17:18:11;0.00;99.90
12166;DHT22;6146;48.128;11.476;2023-02-26T17:20:37;0.00;99.90
12166;DHT22;6146;48.128;11.476;2023-02-26T17:23:04;0.00;99.90
12166;DHT22;6146;48.128;11.476;2023-02-26T17:25:35;0.00;99.90
12166;DHT22;6146;48.128;11.476;2023-02-26T17:28:01;-0.10;99.90
12166;DHT22;6146;48.128;11.476;2023-02-26T17:30:28;-0.10;99.90
12166;DHT22;6146;48.128;11.476;2023-02-26T17:32:58;-0.10;99.90
12166;DHT22;6146;48.128;11.476;2023-02-26T17:35:24;-0.10;99.90
12166;DHT22;6146;48.128;11.476;2023-02-26T17:37:50;-0.10;99.90
12166;DHT22;6146;48.128;11.476;2023-02-26T17:40:28;-0.10;99.90
12166;DHT22;6146;48.128;11.476;2023-02-26T17:42:56;-0.10;99.90
12166;DHT22;6146;48.128;11.476;2023-02-26T17:45:22;-0.10;99.90
12166;DHT22;6146;48.128;11.476;2023-02-26T17:47:48;-0.10;99.90
12166;DHT22;6146;48.128;11.476;2023-02-26T17:50:30;-0.10;99.90
12166;DHT22;6146;48.128;11.476;2023-02-26T17:52:59;-0.20;99.90
12166;DHT22;6146;48.128;11.476;2023-02-26T17:55:24;-0.50;99.90
12166;DHT22;6146;48.128;11.476;2023-02-26T17:57:50;-0.60;99.90
12166;DHT22;6146;48.128;11.476;2023-02-26T18:00:16;-0.60;99.90
12166;DHT22;6146;48.128;11.476;2023-02-26T18:02:42;-0.70;99.90
12166;DHT22;6146;48.128;11.476;2023-02-26T18:05:08;-0.80;99.90
12166;DHT22;6146;48.128;11.476;2023-02-26T18:07:34;-0.90;99.90
12166;DHT22;6146;48.128;11.476;2023-02-26T18:10:00;-0.90;99.90
12166;DHT22;6146;48.128;11.476;2023-02-26T18:12:26;-0.90;99.90
12166;DHT22;6146;48.128;11.476;2023-02-26T18:14:52;-0.90;99.90
12166;DHT22;6146;48.128;11.476;2023-02-26T18:17:24;-0.90;99.90
12166;DHT22;6146;48.128;11.476;2023-02-26T18:19:50;-0.80;99.90
12166;DHT22;6146;48.128;11.476;2023-02-26T18:22:20;-0.90;99.90
12166;DHT22;6146;48.128;11.476;2023-02-26T18:24:48;-0.90;99.90
12166;DHT22;6146;48.128;11.476;2023-02-26T18:27:16;-0.80;99.90
12166;DHT22;6146;48.128;11.476;2023-02-26T18:29:42;-0.80;99.90
12166;DHT22;6146;48.128;11.476;2023-02-26T18:32:16;-0.80;99.90
12166;DHT22;6146;48.128;11.476;2023-02-26T18:34:42;-0.80;99.90
12166;DHT22;6146;48.128;11.476;2023-02-26T18:37:11;-0.70;99.90
12166;DHT22;6146;48.128;11.476;2023-02-26T18:39:38;-0.70;99.90
12166;DHT22;6146;48.128;11.476;2023-02-26T18:42:03;-0.70;99.90
12166;DHT22;6146;48.128;11.476;2023-02-26T18:44:29;-0.60;99.90